sensor_id;sensor_type;location;lat;lon;timestamp;P1;durP1;ratioP1;P2;durP2;ratioP2
50739;SDS011;36704;52.524;17.580;2024-02-28T00:04:06;88.97;;;23.35;;
50739;SDS011;36704;52.524;17.580;2024-02-28T00:09:27;92.00;;;26.75;;
50739;SDS011;36704;52.524;17.580;2024-02-28T00:14:48;99.97;;;23.73;;
50739;SDS011;36704;52.524;17.580;2024-02-28T00:20:09;90.57;;;25.80;;
50739;SDS011;36704;52.524;17.580;2024-02-28T00:25:30;85.95;;;23.80;;
50739;SDS011;36704;52.524;17.580;2024-02-28T00:30:51;104.63;;;24.25;;
50739;SDS011;36704;52.524;17.580;2024-02-28T00:36:13;101.43;;;23.70;;
50739;SDS011;36704;52.524;17.580;2024-02-28T00:41:34;66.33;;;20.07;;
50739;SDS011;36704;52.524;17.580;2024-02-28T00:46:55;121.07;;;30.17;;
50739;SDS011;36704;52.524;17.580;2024-02-28T00:52:16;77.73;;;21.07;;
50739;SDS011;36704;52.524;17.580;2024-02-28T00:57:37;66.25;;;19.02;;
50739;SDS011;36704;52.524;17.580;2024-02-28T01:02:58;87.95;;;20.90;;
50739;SDS011;36704;52.524;17.580;2024-02-28T01:08:19;91.53;;;23.80;;
50739;SDS011;36704;52.524;17.580;2024-02-28T01:13:40;101.32;;;21.85;;
50739;SDS011;36704;52.524;17.580;2024-02-28T01:19:01;64.22;;;17.88;;
50739;SDS011;36704;52.524;17.580;2024-02-28T01:24:23;61.15;;;20.65;;
50739;SDS011;36704;52.524;17.580;2024-02-28T01:29:45;76.93;;;19.37;;
50739;SDS011;36704;52.524;17.580;2024-02-28T01:35:07;54.85;;;16.15;;
50739;SDS011;36704;52.524;17.580;2024-02-28T01:40:29;44.17;;;15.70;;
50739;SDS011;36704;52.524;17.580;2024-02-28T01:45:50;47.30;;;15.60;;
50739;SDS011;36704;52.524;17.580;2024-02-28T01:51:12;54.65;;;17.90;;
50739;SDS011;36704;52.524;17.580;2024-02-28T01:56:33;52.33;;;16.23;;
50739;SDS011;36704;52.524;17.580;2024-02-28T02:07:16;62.60;;;18.63;;
50739;SDS011;36704;52.524;17.580;2024-02-28T02:12:37;45.28;;;14.93;;
50739;SDS011;36704;52.524;17.580;2024-02-28T02:17:58;66.53;;;18.57;;
50739;SDS011;36704;52.524;17.580;2024-02-28T02:23:19;52.08;;;17.95;;
50739;SDS011;36704;52.524;17.580;2024-02-28T02:28:40;38.42;;;14.05;;
50739;SDS011;36704;52.524;17.580;2024-02-28T02:34:01;40.13;;;15.95;;
50739;SDS011;36704;52.524;17.580;2024-02-28T02:39:22;56.87;;;23.07;;
50739;SDS011;36704;52.524;17.580;2024-02-28T02:44:43;39.72;;;15.00;;
50739;SDS011;36704;52.524;17.580;2024-02-28T02:50:05;39.42;;;14.95;;
50739;SDS011;36704;52.524;17.580;2024-02-28T02:55:26;44.92;;;15.57;;
50739;SDS011;36704;52.524;17.580;2024-02-28T03:00:47;41.92;;;15.18;;
50739;SDS011;36704;52.524;17.580;2024-02-28T03:06:08;35.72;;;13.55;;
50739;SDS011;36704;52.524;17.580;2024-02-28T03:11:30;34.08;;;14.18;;
50739;SDS011;36704;52.524;17.580;2024-02-28T03:16:51;38.70;;;16.77;;
50739;SDS011;36704;52.524;17.580;2024-02-28T03:22:12;57.45;;;19.27;;
50739;SDS011;36704;52.524;17.580;2024-02-28T03:27:33;41.63;;;15.40;;
50739;SDS011;36704;52.524;17.580;2024-02-28T03:32:53;35.63;;;13.93;;
50739;SDS011;36704;52.524;17.580;2024-02-28T03:38:15;34.20;;;14.27;;
50739;SDS011;36704;52.524;17.580;2024-02-28T03:43:36;35.15;;;14.57;;
50739;SDS011;36704;52.524;17.580;2024-02-28T03:48:57;41.60;;;15.80;;
50739;SDS011;36704;52.524;17.580;2024-02-28T03:54:18;42.63;;;13.67;;
50739;SDS011;36704;52.524;17.580;2024-02-28T03:59:40;36.07;;;12.70;;
50739;SDS011;36704;52.524;17.580;2024-02-28T04:10:22;32.22;;;13.05;;
50739;SDS011;36704;52.524;17.580;2024-02-28T04:15:43;30.98;;;13.95;;
50739;SDS011;36704;52.524;17.580;2024-02-28T04:21:06;36.38;;;14.48;;
50739;SDS011;36704;52.524;17.580;2024-02-28T04:26:27;35.83;;;13.98;;
50739;SDS011;36704;52.524;17.580;2024-02-28T04:37:10;38.53;;;13.43;;
50739;SDS011;36704;52.524;17.580;2024-02-28T04:42:31;33.53;;;14.13;;
50739;SDS011;36704;52.524;17.580;2024-02-28T04:47:52;37.95;;;16.15;;
50739;SDS011;36704;52.524;17.580;2024-02-28T04:53:15;33.67;;;14.18;;
50739;SDS011;36704;52.524;17.580;2024-02-28T04:58:36;43.03;;;16.02;;
50739;SDS011;36704;52.524;17.580;2024-02-28T05:03:58;40.58;;;16.55;;
50739;SDS011;36704;52.524;17.580;2024-02-28T05:09:19;40.27;;;16.27;;
50739;SDS011;36704;52.524;17.580;2024-02-28T05:14:40;32.53;;;13.73;;
50739;SDS011;36704;52.524;17.580;2024-02-28T05:20:01;33.60;;;13.70;;
50739;SDS011;36704;52.524;17.580;2024-02-28T05:25:22;39.70;;;15.35;;
50739;SDS011;36704;52.524;17.580;2024-02-28T05:30:43;39.23;;;15.03;;
50739;SDS011;36704;52.524;17.580;2024-02-28T05:36:09;40.88;;;15.05;;
50739;SDS011;36704;52.524;17.580;2024-02-28T05:41:30;43.08;;;14.82;;
50739;SDS011;36704;52.524;17.580;2024-02-28T05:46:50;40.47;;;14.90;;
50739;SDS011;36704;52.524;17.580;2024-02-28T05:52:11;33.65;;;14.10;;
50739;SDS011;36704;52.524;17.580;2024-02-28T05:57:34;31.83;;;13.93;;
50739;SDS011;36704;52.524;17.580;2024-02-28T06:02:55;33.17;;;14.50;;
50739;SDS011;36704;52.524;17.580;2024-02-28T06:08:17;31.58;;;14.48;;
50739;SDS011;36704;52.524;17.580;2024-02-28T06:13:39;37.20;;;15.25;;
50739;SDS011;36704;52.524;17.580;2024-02-28T06:19:01;30.35;;;13.60;;
50739;SDS011;36704;52.524;17.580;2024-02-28T06:24:25;39.35;;;14.85;;
50739;SDS011;36704;52.524;17.580;2024-02-28T06:29:47;47.53;;;16.20;;
50739;SDS011;36704;52.524;17.580;2024-02-28T06:35:09;52.58;;;17.25;;
50739;SDS011;36704;52.524;17.580;2024-02-28T06:40:30;41.38;;;15.23;;
50739;SDS011;36704;52.524;17.580;2024-02-28T06:45:53;39.13;;;14.90;;
50739;SDS011;36704;52.524;17.580;2024-02-28T06:51:15;38.88;;;14.77;;
50739;SDS011;36704;52.524;17.580;2024-02-28T06:56:37;37.65;;;15.40;;
50739;SDS011;36704;52.524;17.580;2024-02-28T07:01:58;29.52;;;12.88;;
50739;SDS011;36704;52.524;17.580;2024-02-28T07:07:19;30.15;;;13.00;;
50739;SDS011;36704;52.524;17.580;2024-02-28T07:12:41;30.52;;;14.02;;
50739;SDS011;36704;52.524;17.580;2024-02-28T07:18:02;37.05;;;14.10;;
50739;SDS011;36704;52.524;17.580;2024-02-28T07:23:22;35.38;;;16.02;;
50739;SDS011;36704;52.524;17.580;2024-02-28T07:28:43;38.67;;;14.48;;
50739;SDS011;36704;52.524;17.580;2024-02-28T07:34:10;35.95;;;14.63;;
50739;SDS011;36704;52.524;17.580;2024-02-28T07:39:31;29.40;;;13.52;;
50739;SDS011;36704;52.524;17.580;2024-02-28T07:44:52;37.63;;;14.90;;
50739;SDS011;36704;52.524;17.580;2024-02-28T07:50:17;36.53;;;13.77;;
50739;SDS011;36704;52.524;17.580;2024-02-28T07:55:37;37.55;;;14.27;;
50739;SDS011;36704;52.524;17.580;2024-02-28T08:00:59;30.80;;;13.73;;
50739;SDS011;36704;52.524;17.580;2024-02-28T08:06:21;29.35;;;14.02;;
50739;SDS011;36704;52.524;17.580;2024-02-28T08:11:43;28.55;;;13.43;;
50739;SDS011;36704;52.524;17.580;2024-02-28T08:17:04;25.95;;;12.48;;
50739;SDS011;36704;52.524;17.580;2024-02-28T08:22:25;34.67;;;14.27;;
50739;SDS011;36704;52.524;17.580;2024-02-28T08:27:46;31.73;;;14.95;;
50739;SDS011;36704;52.524;17.580;2024-02-28T08:33:06;30.52;;;13.13;;
50739;SDS011;36704;52.524;17.580;2024-02-28T08:38:29;30.35;;;12.95;;
50739;SDS011;36704;52.524;17.580;2024-02-28T08:43:50;32.55;;;13.88;;
50739;SDS011;36704;52.524;17.580;2024-02-28T08:49:11;34.88;;;14.77;;
50739;SDS011;36704;52.524;17.580;2024-02-28T08:54:32;33.25;;;15.05;;
50739;SDS011;36704;52.524;17.580;2024-02-28T08:59:53;37.50;;;15.15;;
50739;SDS011;36704;52.524;17.580;2024-02-28T09:05:13;38.28;;;16.67;;
50739;SDS011;36704;52.524;17.580;2024-02-28T09:10:34;36.60;;;14.60;;
50739;SDS011;36704;52.524;17.580;2024-02-28T09:15:55;31.88;;;13.38;;
50739;SDS011;36704;52.524;17.580;2024-02-28T09:21:16;32.58;;;12.32;;
50739;SDS011;36704;52.524;17.580;2024-02-28T09:26:41;30.43;;;12.93;;
50739;SDS011;36704;52.524;17.580;2024-02-28T09:32:01;28.42;;;12.23;;
50739;SDS011;36704;52.524;17.580;2024-02-28T09:37:22;23.55;;;11.57;;
50739;SDS011;36704;52.524;17.580;2024-02-28T09:42:51;23.98;;;10.57;;
50739;SDS011;36704;52.524;17.580;2024-02-28T09:48:14;23.75;;;11.15;;
50739;SDS011;36704;52.524;17.580;2024-02-28T10:04:19;26.73;;;12.15;;
50739;SDS011;36704;52.524;17.580;2024-02-28T10:09:40;28.65;;;12.00;;
50739;SDS011;36704;52.524;17.580;2024-02-28T10:15:01;28.75;;;13.43;;
50739;SDS011;36704;52.524;17.580;2024-02-28T10:20:23;28.02;;;12.50;;
50739;SDS011;36704;52.524;17.580;2024-02-28T10:25:45;26.40;;;12.43;;
50739;SDS011;36704;52.524;17.580;2024-02-28T10:36:38;26.20;;;11.25;;
50739;SDS011;36704;52.524;17.580;2024-02-28T10:47:20;25.65;;;10.80;;
50739;SDS011;36704;52.524;17.580;2024-02-28T10:52:45;29.98;;;13.00;;
50739;SDS011;36704;52.524;17.580;2024-02-28T10:58:09;29.48;;;11.77;;
50739;SDS011;36704;52.524;17.580;2024-02-28T11:03:31;25.02;;;11.30;;
50739;SDS011;36704;52.524;17.580;2024-02-28T11:09:10;28.00;;;11.52;;
50739;SDS011;36704;52.524;17.580;2024-02-28T11:14:34;29.27;;;13.75;;
50739;SDS011;36704;52.524;17.580;2024-02-28T11:19:57;29.20;;;12.25;;
50739;SDS011;36704;52.524;17.580;2024-02-28T11:25:18;26.40;;;12.18;;
50739;SDS011;36704;52.524;17.580;2024-02-28T11:30:40;25.77;;;11.43;;
50739;SDS011;36704;52.524;17.580;2024-02-28T11:36:02;26.98;;;13.02;;
50739;SDS011;36704;52.524;17.580;2024-02-28T11:41:26;28.98;;;12.27;;
50739;SDS011;36704;52.524;17.580;2024-02-28T11:46:53;25.75;;;12.30;;
50739;SDS011;36704;52.524;17.580;2024-02-28T11:52:14;33.97;;;12.87;;
50739;SDS011;36704;52.524;17.580;2024-02-28T11:57:35;26.55;;;12.18;;
50739;SDS011;36704;52.524;17.580;2024-02-28T12:03:06;27.35;;;12.30;;
50739;SDS011;36704;52.524;17.580;2024-02-28T12:08:27;33.30;;;12.02;;
50739;SDS011;36704;52.524;17.580;2024-02-28T12:13:54;27.73;;;11.48;;
50739;SDS011;36704;52.524;17.580;2024-02-28T12:19:16;26.42;;;10.88;;
50739;SDS011;36704;52.524;17.580;2024-02-28T12:24:40;30.15;;;12.23;;
50739;SDS011;36704;52.524;17.580;2024-02-28T12:30:02;33.25;;;13.10;;
50739;SDS011;36704;52.524;17.580;2024-02-28T12:35:23;32.67;;;12.60;;
50739;SDS011;36704;52.524;17.580;2024-02-28T12:40:44;24.63;;;9.98;;
50739;SDS011;36704;52.524;17.580;2024-02-28T12:46:05;29.45;;;12.20;;
50739;SDS011;36704;52.524;17.580;2024-02-28T12:51:43;24.48;;;10.43;;
50739;SDS011;36704;52.524;17.580;2024-02-28T12:57:06;22.75;;;10.70;;
50739;SDS011;36704;52.524;17.580;2024-02-28T13:02:29;27.00;;;13.23;;
50739;SDS011;36704;52.524;17.580;2024-02-28T13:07:50;19.08;;;9.32;;
50739;SDS011;36704;52.524;17.580;2024-02-28T13:13:13;17.45;;;9.00;;
50739;SDS011;36704;52.524;17.580;2024-02-28T13:18:34;16.27;;;8.13;;
50739;SDS011;36704;52.524;17.580;2024-02-28T13:23:54;16.98;;;7.57;;
50739;SDS011;36704;52.524;17.580;2024-02-28T13:29:16;13.48;;;7.13;;
50739;SDS011;36704;52.524;17.580;2024-02-28T13:34:37;18.65;;;8.57;;
50739;SDS011;36704;52.524;17.580;2024-02-28T13:39:58;13.77;;;7.80;;
50739;SDS011;36704;52.524;17.580;2024-02-28T13:45:20;19.38;;;8.85;;
50739;SDS011;36704;52.524;17.580;2024-02-28T13:50:41;14.13;;;7.78;;
50739;SDS011;36704;52.524;17.580;2024-02-28T13:56:02;24.60;;;11.13;;
50739;SDS011;36704;52.524;17.580;2024-02-28T14:01:24;39.17;;;17.85;;
50739;SDS011;36704;52.524;17.580;2024-02-28T14:06:45;13.20;;;7.77;;
50739;SDS011;36704;52.524;17.580;2024-02-28T14:12:06;14.98;;;7.25;;
50739;SDS011;36704;52.524;17.580;2024-02-28T14:17:27;13.13;;;6.87;;
50739;SDS011;36704;52.524;17.580;2024-02-28T14:22:48;14.50;;;7.78;;
50739;SDS011;36704;52.524;17.580;2024-02-28T14:28:09;11.55;;;6.57;;
50739;SDS011;36704;52.524;17.580;2024-02-28T14:33:30;14.77;;;7.13;;
50739;SDS011;36704;52.524;17.580;2024-02-28T14:38:51;9.75;;;6.13;;
50739;SDS011;36704;52.524;17.580;2024-02-28T14:44:12;10.32;;;6.28;;
50739;SDS011;36704;52.524;17.580;2024-02-28T14:55:00;12.55;;;7.35;;
50739;SDS011;36704;52.524;17.580;2024-02-28T15:00:22;15.20;;;8.50;;
50739;SDS011;36704;52.524;17.580;2024-02-28T15:05:43;14.13;;;7.35;;
50739;SDS011;36704;52.524;17.580;2024-02-28T15:11:05;20.05;;;9.07;;
50739;SDS011;36704;52.524;17.580;2024-02-28T15:16:26;17.58;;;7.82;;
50739;SDS011;36704;52.524;17.580;2024-02-28T15:21:47;16.13;;;8.65;;
50739;SDS011;36704;52.524;17.580;2024-02-28T15:27:08;22.13;;;9.82;;
50739;SDS011;36704;52.524;17.580;2024-02-28T15:32:29;16.63;;;9.55;;
50739;SDS011;36704;52.524;17.580;2024-02-28T15:37:50;15.87;;;9.37;;
50739;SDS011;36704;52.524;17.580;2024-02-28T15:43:11;16.02;;;9.85;;
50739;SDS011;36704;52.524;17.580;2024-02-28T15:48:33;16.23;;;8.97;;
50739;SDS011;36704;52.524;17.580;2024-02-28T15:53:54;20.95;;;9.90;;
50739;SDS011;36704;52.524;17.580;2024-02-28T15:59:15;18.38;;;10.13;;
50739;SDS011;36704;52.524;17.580;2024-02-28T16:04:36;25.70;;;13.93;;
50739;SDS011;36704;52.524;17.580;2024-02-28T16:09:57;22.73;;;11.68;;
50739;SDS011;36704;52.524;17.580;2024-02-28T16:15:19;17.77;;;9.48;;
50739;SDS011;36704;52.524;17.580;2024-02-28T16:20:40;22.85;;;11.05;;
50739;SDS011;36704;52.524;17.580;2024-02-28T16:26:04;16.67;;;9.50;;
50739;SDS011;36704;52.524;17.580;2024-02-28T16:31:25;17.23;;;10.15;;
50739;SDS011;36704;52.524;17.580;2024-02-28T16:36:45;22.95;;;9.90;;
50739;SDS011;36704;52.524;17.580;2024-02-28T16:42:07;22.40;;;11.17;;
50739;SDS011;36704;52.524;17.580;2024-02-28T16:47:29;19.35;;;9.77;;
50739;SDS011;36704;52.524;17.580;2024-02-28T16:58:12;17.30;;;8.90;;
50739;SDS011;36704;52.524;17.580;2024-02-28T17:03:33;14.37;;;8.13;;
50739;SDS011;36704;52.524;17.580;2024-02-28T17:08:54;16.58;;;9.68;;
50739;SDS011;36704;52.524;17.580;2024-02-28T17:14:15;17.77;;;9.43;;
50739;SDS011;36704;52.524;17.580;2024-02-28T17:19:37;18.67;;;9.75;;
50739;SDS011;36704;52.524;17.580;2024-02-28T17:24:59;19.38;;;8.73;;
50739;SDS011;36704;52.524;17.580;2024-02-28T17:30:20;14.57;;;8.03;;
50739;SDS011;36704;52.524;17.580;2024-02-28T17:35:41;16.98;;;8.55;;
50739;SDS011;36704;52.524;17.580;2024-02-28T17:41:03;16.17;;;8.63;;
50739;SDS011;36704;52.524;17.580;2024-02-28T17:46:26;20.75;;;9.10;;
50739;SDS011;36704;52.524;17.580;2024-02-28T17:51:47;19.77;;;9.30;;
50739;SDS011;36704;52.524;17.580;2024-02-28T17:57:09;17.48;;;9.52;;
50739;SDS011;36704;52.524;17.580;2024-02-28T18:02:31;18.45;;;8.57;;
50739;SDS011;36704;52.524;17.580;2024-02-28T18:07:52;19.33;;;7.65;;
50739;SDS011;36704;52.524;17.580;2024-02-28T18:13:14;18.27;;;8.95;;
50739;SDS011;36704;52.524;17.580;2024-02-28T18:18:38;14.95;;;7.80;;
50739;SDS011;36704;52.524;17.580;2024-02-28T18:23:59;19.10;;;7.95;;
50739;SDS011;36704;52.524;17.580;2024-02-28T18:29:21;15.18;;;7.65;;
50739;SDS011;36704;52.524;17.580;2024-02-28T18:34:42;15.88;;;7.15;;
50739;SDS011;36704;52.524;17.580;2024-02-28T18:40:03;13.55;;;7.00;;
50739;SDS011;36704;52.524;17.580;2024-02-28T18:45:25;15.23;;;7.53;;
50739;SDS011;36704;52.524;17.580;2024-02-28T18:50:47;16.83;;;7.80;;
50739;SDS011;36704;52.524;17.580;2024-02-28T18:56:08;15.52;;;7.65;;
50739;SDS011;36704;52.524;17.580;2024-02-28T19:01:30;12.50;;;6.97;;
50739;SDS011;36704;52.524;17.580;2024-02-28T19:06:51;18.90;;;8.63;;
50739;SDS011;36704;52.524;17.580;2024-02-28T19:12:12;15.57;;;8.60;;
50739;SDS011;36704;52.524;17.580;2024-02-28T19:17:34;14.55;;;7.13;;
50739;SDS011;36704;52.524;17.580;2024-02-28T19:22:55;16.17;;;7.70;;
50739;SDS011;36704;52.524;17.580;2024-02-28T19:28:16;15.18;;;8.15;;
50739;SDS011;36704;52.524;17.580;2024-02-28T19:33:37;17.38;;;8.07;;
50739;SDS011;36704;52.524;17.580;2024-02-28T19:39:00;15.70;;;7.97;;
50739;SDS011;36704;52.524;17.580;2024-02-28T19:44:24;13.95;;;8.13;;
50739;SDS011;36704;52.524;17.580;2024-02-28T19:49:45;16.58;;;8.23;;
50739;SDS011;36704;52.524;17.580;2024-02-28T19:55:06;14.48;;;8.57;;
50739;SDS011;36704;52.524;17.580;2024-02-28T20:00:27;19.10;;;9.75;;
50739;SDS011;36704;52.524;17.580;2024-02-28T20:05:50;14.65;;;7.60;;
50739;SDS011;36704;52.524;17.580;2024-02-28T20:11:10;14.40;;;7.18;;
50739;SDS011;36704;52.524;17.580;2024-02-28T20:16:32;17.13;;;7.43;;
50739;SDS011;36704;52.524;17.580;2024-02-28T20:21:53;17.00;;;9.18;;
50739;SDS011;36704;52.524;17.580;2024-02-28T20:27:14;14.93;;;8.68;;
50739;SDS011;36704;52.524;17.580;2024-02-28T20:32:35;19.13;;;8.93;;
50739;SDS011;36704;52.524;17.580;2024-02-28T20:37:56;20.38;;;10.05;;
50739;SDS011;36704;52.524;17.580;2024-02-28T20:43:17;19.58;;;9.55;;
50739;SDS011;36704;52.524;17.580;2024-02-28T20:48:38;16.58;;;8.77;;
50739;SDS011;36704;52.524;17.580;2024-02-28T20:54:01;15.48;;;9.07;;
50739;SDS011;36704;52.524;17.580;2024-02-28T20:59:22;16.23;;;8.75;;
50739;SDS011;36704;52.524;17.580;2024-02-28T21:04:43;16.77;;;8.93;;
50739;SDS011;36704;52.524;17.580;2024-02-28T21:10:07;14.30;;;7.80;;
50739;SDS011;36704;52.524;17.580;2024-02-28T21:15:31;15.60;;;8.00;;
50739;SDS011;36704;52.524;17.580;2024-02-28T21:20:52;16.17;;;8.05;;
50739;SDS011;36704;52.524;17.580;2024-02-28T21:26:15;16.17;;;7.22;;
50739;SDS011;36704;52.524;17.580;2024-02-28T21:31:36;15.20;;;7.32;;
50739;SDS011;36704;52.524;17.580;2024-02-28T21:36:57;13.82;;;7.20;;
50739;SDS011;36704;52.524;17.580;2024-02-28T21:42:18;16.25;;;7.00;;
50739;SDS011;36704;52.524;17.580;2024-02-28T21:47:38;12.55;;;6.20;;
50739;SDS011;36704;52.524;17.580;2024-02-28T21:53:00;13.77;;;7.10;;
50739;SDS011;36704;52.524;17.580;2024-02-28T21:58:22;13.93;;;6.57;;
50739;SDS011;36704;52.524;17.580;2024-02-28T22:03:43;12.25;;;6.75;;
50739;SDS011;36704;52.524;17.580;2024-02-28T22:09:04;15.25;;;6.15;;
50739;SDS011;36704;52.524;17.580;2024-02-28T22:14:26;15.07;;;7.73;;
50739;SDS011;36704;52.524;17.580;2024-02-28T22:19:46;13.27;;;7.05;;
50739;SDS011;36704;52.524;17.580;2024-02-28T22:25:07;14.23;;;6.63;;
50739;SDS011;36704;52.524;17.580;2024-02-28T22:30:29;15.40;;;8.45;;
50739;SDS011;36704;52.524;17.580;2024-02-28T22:35:50;16.33;;;8.18;;
50739;SDS011;36704;52.524;17.580;2024-02-28T22:41:11;18.13;;;8.25;;
50739;SDS011;36704;52.524;17.580;2024-02-28T22:46:31;14.98;;;7.05;;
50739;SDS011;36704;52.524;17.580;2024-02-28T22:51:53;15.83;;;8.10;;
50739;SDS011;36704;52.524;17.580;2024-02-28T22:57:14;13.25;;;7.22;;
50739;SDS011;36704;52.524;17.580;2024-02-28T23:02:35;13.07;;;6.80;;
50739;SDS011;36704;52.524;17.580;2024-02-28T23:07:56;12.30;;;6.20;;
50739;SDS011;36704;52.524;17.580;2024-02-28T23:13:18;11.63;;;6.50;;
50739;SDS011;36704;52.524;17.580;2024-02-28T23:18:40;12.97;;;6.60;;
50739;SDS011;36704;52.524;17.580;2024-02-28T23:24:01;14.70;;;6.82;;
50739;SDS011;36704;52.524;17.580;2024-02-28T23:29:22;14.13;;;6.75;;
50739;SDS011;36704;52.524;17.580;2024-02-28T23:34:43;13.60;;;6.80;;
50739;SDS011;36704;52.524;17.580;2024-02-28T23:40:04;13.95;;;7.32;;
50739;SDS011;36704;52.524;17.580;2024-02-28T23:45:27;14.82;;;7.53;;
50739;SDS011;36704;52.524;17.580;2024-02-28T23:50:50;17.40;;;9.40;;
50739;SDS011;36704;52.524;17.580;2024-02-28T23:56:12;14.57;;;8.25;;
